sensor_id;sensor_type;location;lat;lon;timestamp;temperature;humidity
46440;DHT22;32138;50.966;6.968;2022-08-19T00:01:41;22.10;71.90
46440;DHT22;32138;50.966;6.968;2022-08-19T00:03:44;22.20;72.10
46440;DHT22;32138;50.966;6.968;2022-08-19T00:05:45;22.30;71.90
46440;DHT22;32138;50.966;6.968;2022-08-19T00:07:46;22.20;72.50
46440;DHT22;32138;50.966;6.968;2022-08-19T00:09:47;22.20;71.80
46440;DHT22;32138;50.966;6.968;2022-08-19T00:11:48;22.30;71.70
46440;DHT22;32138;50.966;6.968;2022-08-19T00:13:49;22.30;71.60
46440;DHT22;32138;50.966;6.968;2022-08-19T00:15:50;22.30;71.80
46440;DHT22;32138;50.966;6.968;2022-08-19T00:17:52;22.30;72.50
46440;DHT22;32138;50.966;6.968;2022-08-19T00:19:52;22.30;71.70
46440;DHT22;32138;50.966;6.968;2022-08-19T00:21:53;22.30;71.70
46440;DHT22;32138;50.966;6.968;2022-08-19T00:23:56;22.30;71.70
46440;DHT22;32138;50.966;6.968;2022-08-19T00:25:58;22.40;71.60
46440;DHT22;32138;50.966;6.968;2022-08-19T00:27:59;22.40;71.40
46440;DHT22;32138;50.966;6.968;2022-08-19T00:30:00;22.30;71.80
46440;DHT22;32138;50.966;6.968;2022-08-19T00:32:04;22.20;71.60
46440;DHT22;32138;50.966;6.968;2022-08-19T00:34:05;22.20;71.90
46440;DHT22;32138;50.966;6.968;2022-08-19T00:36:08;22.10;71.90
46440;DHT22;32138;50.966;6.968;2022-08-19T00:38:09;22.10;72.30
46440;DHT22;32138;50.966;6.968;2022-08-19T00:40:12;22.10;72.30
46440;DHT22;32138;50.966;6.968;2022-08-19T00:42:13;22.10;72.50
46440;DHT22;32138;50.966;6.968;2022-08-19T00:44:22;22.10;72.20
46440;DHT22;32138;50.966;6.968;2022-08-19T00:46:26;22.10;72.40
46440;DHT22;32138;50.966;6.968;2022-08-19T00:48:27;21.90;72.80
46440;DHT22;32138;50.966;6.968;2022-08-19T00:50:27;21.90;72.80
46440;DHT22;32138;50.966;6.968;2022-08-19T00:52:33;21.80;72.90
46440;DHT22;32138;50.966;6.968;2022-08-19T00:54:37;21.90;72.80
46440;DHT22;32138;50.966;6.968;2022-08-19T00:56:40;21.90;72.70
46440;DHT22;32138;50.966;6.968;2022-08-19T00:58:41;22.00;72.60
46440;DHT22;32138;50.966;6.968;2022-08-19T01:00:42;21.90;72.60
46440;DHT22;32138;50.966;6.968;2022-08-19T01:02:44;22.00;72.60
46440;DHT22;32138;50.966;6.968;2022-08-19T01:04:45;22.00;72.40
46440;DHT22;32138;50.966;6.968;2022-08-19T01:06:45;22.00;72.50
46440;DHT22;32138;50.966;6.968;2022-08-19T01:08:46;22.00;72.50
46440;DHT22;32138;50.966;6.968;2022-08-19T01:10:53;22.00;72.40
46440;DHT22;32138;50.966;6.968;2022-08-19T01:12:56;22.00;72.40
46440;DHT22;32138;50.966;6.968;2022-08-19T01:14:59;22.00;72.50
46440;DHT22;32138;50.966;6.968;2022-08-19T01:17:00;22.00;72.30
46440;DHT22;32138;50.966;6.968;2022-08-19T01:19:02;22.00;72.20
46440;DHT22;32138;50.966;6.968;2022-08-19T01:23:43;22.00;72.50
46440;DHT22;32138;50.966;6.968;2022-08-19T01:25:48;21.90;72.80
46440;DHT22;32138;50.966;6.968;2022-08-19T01:27:52;21.80;73.10
46440;DHT22;32138;50.966;6.968;2022-08-19T01:29:53;21.90;72.80
46440;DHT22;32138;50.966;6.968;2022-08-19T01:31:53;21.80;72.60
46440;DHT22;32138;50.966;6.968;2022-08-19T01:33:56;21.90;72.90
46440;DHT22;32138;50.966;6.968;2022-08-19T01:36:12;21.90;72.70
46440;DHT22;32138;50.966;6.968;2022-08-19T01:38:26;21.90;72.30
46440;DHT22;32138;50.966;6.968;2022-08-19T01:40:31;21.90;72.60
46440;DHT22;32138;50.966;6.968;2022-08-19T01:42:33;21.80;72.90
46440;DHT22;32138;50.966;6.968;2022-08-19T01:44:35;21.80;72.80
46440;DHT22;32138;50.966;6.968;2022-08-19T01:46:37;21.70;72.90
46440;DHT22;32138;50.966;6.968;2022-08-19T01:48:40;21.70;72.90
46440;DHT22;32138;50.966;6.968;2022-08-19T01:50:42;21.80;73.00
46440;DHT22;32138;50.966;6.968;2022-08-19T01:52:44;21.80;72.70
46440;DHT22;32138;50.966;6.968;2022-08-19T01:54:45;21.90;72.70
46440;DHT22;32138;50.966;6.968;2022-08-19T01:56:45;21.90;72.50
46440;DHT22;32138;50.966;6.968;2022-08-19T01:58:56;21.80;72.60
46440;DHT22;32138;50.966;6.968;2022-08-19T02:00:59;21.80;72.70
46440;DHT22;32138;50.966;6.968;2022-08-19T02:02:59;21.70;72.80
46440;DHT22;32138;50.966;6.968;2022-08-19T02:05:01;21.70;73.00
46440;DHT22;32138;50.966;6.968;2022-08-19T02:07:02;21.80;73.00
46440;DHT22;32138;50.966;6.968;2022-08-19T02:09:04;21.70;73.00
46440;DHT22;32138;50.966;6.968;2022-08-19T02:11:06;21.70;73.10
46440;DHT22;32138;50.966;6.968;2022-08-19T02:13:08;21.60;73.20
46440;DHT22;32138;50.966;6.968;2022-08-19T02:15:10;21.60;73.20
46440;DHT22;32138;50.966;6.968;2022-08-19T02:17:11;21.60;73.40
46440;DHT22;32138;50.966;6.968;2022-08-19T02:19:12;21.70;73.20
46440;DHT22;32138;50.966;6.968;2022-08-19T02:21:13;21.70;73.20
46440;DHT22;32138;50.966;6.968;2022-08-19T02:23:16;21.60;73.50
46440;DHT22;32138;50.966;6.968;2022-08-19T02:25:17;21.60;73.40
46440;DHT22;32138;50.966;6.968;2022-08-19T02:27:18;21.60;73.40
46440;DHT22;32138;50.966;6.968;2022-08-19T02:29:19;21.50;73.70
46440;DHT22;32138;50.966;6.968;2022-08-19T02:31:23;21.50;73.70
46440;DHT22;32138;50.966;6.968;2022-08-19T02:33:24;21.50;73.70
46440;DHT22;32138;50.966;6.968;2022-08-19T02:35:26;21.40;73.90
46440;DHT22;32138;50.966;6.968;2022-08-19T02:37:26;21.40;74.00
46440;DHT22;32138;50.966;6.968;2022-08-19T02:39:46;21.30;74.30
46440;DHT22;32138;50.966;6.968;2022-08-19T02:41:47;21.30;74.50
46440;DHT22;32138;50.966;6.968;2022-08-19T02:43:48;21.30;74.60
46440;DHT22;32138;50.966;6.968;2022-08-19T02:45:50;21.40;74.30
46440;DHT22;32138;50.966;6.968;2022-08-19T02:47:51;21.40;74.00
46440;DHT22;32138;50.966;6.968;2022-08-19T02:49:52;21.40;74.40
46440;DHT22;32138;50.966;6.968;2022-08-19T02:51:53;21.40;74.30
46440;DHT22;32138;50.966;6.968;2022-08-19T02:53:55;21.40;74.40
46440;DHT22;32138;50.966;6.968;2022-08-19T02:55:56;21.40;74.20
46440;DHT22;32138;50.966;6.968;2022-08-19T02:57:56;21.40;74.20
46440;DHT22;32138;50.966;6.968;2022-08-19T02:59:58;21.30;74.50
46440;DHT22;32138;50.966;6.968;2022-08-19T03:01:59;21.10;75.20
46440;DHT22;32138;50.966;6.968;2022-08-19T03:04:03;21.10;75.10
46440;DHT22;32138;50.966;6.968;2022-08-19T03:06:11;21.20;74.70
46440;DHT22;32138;50.966;6.968;2022-08-19T03:08:13;21.20;74.70
46440;DHT22;32138;50.966;6.968;2022-08-19T03:10:14;21.10;75.00
46440;DHT22;32138;50.966;6.968;2022-08-19T03:12:15;21.20;75.10
46440;DHT22;32138;50.966;6.968;2022-08-19T03:14:16;21.10;75.00
46440;DHT22;32138;50.966;6.968;2022-08-19T03:16:19;21.10;75.20
46440;DHT22;32138;50.966;6.968;2022-08-19T03:18:23;21.20;75.10
46440;DHT22;32138;50.966;6.968;2022-08-19T03:20:23;21.30;75.00
46440;DHT22;32138;50.966;6.968;2022-08-19T03:22:26;21.20;75.00
46440;DHT22;32138;50.966;6.968;2022-08-19T03:24:27;21.30;74.80
46440;DHT22;32138;50.966;6.968;2022-08-19T03:26:28;21.20;75.00
46440;DHT22;32138;50.966;6.968;2022-08-19T03:28:29;21.00;75.30
46440;DHT22;32138;50.966;6.968;2022-08-19T03:30:30;21.00;75.50
46440;DHT22;32138;50.966;6.968;2022-08-19T03:32:31;21.10;75.50
46440;DHT22;32138;50.966;6.968;2022-08-19T03:34:33;21.10;75.50
46440;DHT22;32138;50.966;6.968;2022-08-19T03:36:36;21.10;75.60
46440;DHT22;32138;50.966;6.968;2022-08-19T03:38:44;21.00;76.00
46440;DHT22;32138;50.966;6.968;2022-08-19T03:40:48;21.10;75.90
46440;DHT22;32138;50.966;6.968;2022-08-19T03:42:48;21.20;75.50
46440;DHT22;32138;50.966;6.968;2022-08-19T03:44:50;21.20;75.30
46440;DHT22;32138;50.966;6.968;2022-08-19T03:46:56;21.20;75.00
46440;DHT22;32138;50.966;6.968;2022-08-19T03:49:00;21.20;75.10
46440;DHT22;32138;50.966;6.968;2022-08-19T03:51:16;21.20;75.10
46440;DHT22;32138;50.966;6.968;2022-08-19T03:53:27;21.20;75.10
46440;DHT22;32138;50.966;6.968;2022-08-19T03:55:29;21.20;75.10
46440;DHT22;32138;50.966;6.968;2022-08-19T03:57:29;21.20;75.40
46440;DHT22;32138;50.966;6.968;2022-08-19T03:59:33;21.20;75.50
46440;DHT22;32138;50.966;6.968;2022-08-19T04:01:35;21.10;75.60
46440;DHT22;32138;50.966;6.968;2022-08-19T04:03:37;21.10;75.50
46440;DHT22;32138;50.966;6.968;2022-08-19T04:05:39;21.20;75.50
46440;DHT22;32138;50.966;6.968;2022-08-19T04:07:40;21.20;75.20
46440;DHT22;32138;50.966;6.968;2022-08-19T04:09:41;21.10;75.60
46440;DHT22;32138;50.966;6.968;2022-08-19T04:11:51;21.20;75.60
46440;DHT22;32138;50.966;6.968;2022-08-19T04:13:54;21.20;75.40
46440;DHT22;32138;50.966;6.968;2022-08-19T04:15:56;21.10;75.60
46440;DHT22;32138;50.966;6.968;2022-08-19T04:17:57;21.20;75.60
46440;DHT22;32138;50.966;6.968;2022-08-19T04:19:57;21.20;75.50
46440;DHT22;32138;50.966;6.968;2022-08-19T04:21:58;21.10;75.60
46440;DHT22;32138;50.966;6.968;2022-08-19T04:23:59;21.10;75.80
46440;DHT22;32138;50.966;6.968;2022-08-19T04:26:00;21.10;75.80
46440;DHT22;32138;50.966;6.968;2022-08-19T04:28:01;21.20;75.60
46440;DHT22;32138;50.966;6.968;2022-08-19T04:30:03;21.20;75.60
46440;DHT22;32138;50.966;6.968;2022-08-19T04:32:04;21.20;75.30
46440;DHT22;32138;50.966;6.968;2022-08-19T04:34:07;21.20;75.40
46440;DHT22;32138;50.966;6.968;2022-08-19T04:36:18;21.10;75.60
46440;DHT22;32138;50.966;6.968;2022-08-19T04:38:24;21.10;75.70
46440;DHT22;32138;50.966;6.968;2022-08-19T04:40:25;21.10;75.80
46440;DHT22;32138;50.966;6.968;2022-08-19T04:42:45;21.20;75.70
46440;DHT22;32138;50.966;6.968;2022-08-19T04:44:45;21.20;75.80
46440;DHT22;32138;50.966;6.968;2022-08-19T04:46:50;21.20;75.80
46440;DHT22;32138;50.966;6.968;2022-08-19T04:48:51;21.10;76.10
46440;DHT22;32138;50.966;6.968;2022-08-19T04:50:55;21.10;76.00
46440;DHT22;32138;50.966;6.968;2022-08-19T04:52:59;21.10;76.00
46440;DHT22;32138;50.966;6.968;2022-08-19T04:55:00;21.20;75.90
46440;DHT22;32138;50.966;6.968;2022-08-19T04:57:01;21.10;76.00
46440;DHT22;32138;50.966;6.968;2022-08-19T04:59:01;21.20;76.00
46440;DHT22;32138;50.966;6.968;2022-08-19T05:01:06;21.20;76.00
46440;DHT22;32138;50.966;6.968;2022-08-19T05:03:07;21.20;75.90
46440;DHT22;32138;50.966;6.968;2022-08-19T05:05:08;21.10;76.20
46440;DHT22;32138;50.966;6.968;2022-08-19T05:07:09;21.00;76.70
46440;DHT22;32138;50.966;6.968;2022-08-19T05:09:10;20.80;77.40
46440;DHT22;32138;50.966;6.968;2022-08-19T05:13:18;20.70;78.70
46440;DHT22;32138;50.966;6.968;2022-08-19T05:15:19;20.80;78.00
46440;DHT22;32138;50.966;6.968;2022-08-19T05:17:20;20.70;78.20
46440;DHT22;32138;50.966;6.968;2022-08-19T05:19:20;20.70;78.10
46440;DHT22;32138;50.966;6.968;2022-08-19T05:21:42;20.80;78.20
46440;DHT22;32138;50.966;6.968;2022-08-19T05:24:02;20.90;78.40
46440;DHT22;32138;50.966;6.968;2022-08-19T05:26:08;21.00;77.80
46440;DHT22;32138;50.966;6.968;2022-08-19T05:28:11;21.10;77.90
46440;DHT22;32138;50.966;6.968;2022-08-19T05:30:12;21.10;78.00
46440;DHT22;32138;50.966;6.968;2022-08-19T05:32:13;21.10;78.00
46440;DHT22;32138;50.966;6.968;2022-08-19T05:34:13;21.20;78.00
46440;DHT22;32138;50.966;6.968;2022-08-19T05:36:14;21.10;78.00
46440;DHT22;32138;50.966;6.968;2022-08-19T05:38:17;21.10;78.60
46440;DHT22;32138;50.966;6.968;2022-08-19T05:40:18;21.30;78.10
46440;DHT22;32138;50.966;6.968;2022-08-19T05:42:19;21.30;77.90
46440;DHT22;32138;50.966;6.968;2022-08-19T05:44:20;21.30;78.10
46440;DHT22;32138;50.966;6.968;2022-08-19T05:46:22;21.30;78.10
46440;DHT22;32138;50.966;6.968;2022-08-19T05:48:23;21.20;78.40
46440;DHT22;32138;50.966;6.968;2022-08-19T05:50:25;21.20;79.20
46440;DHT22;32138;50.966;6.968;2022-08-19T05:52:28;21.20;78.50
46440;DHT22;32138;50.966;6.968;2022-08-19T05:54:29;21.20;78.70
46440;DHT22;32138;50.966;6.968;2022-08-19T05:56:30;21.20;78.60
46440;DHT22;32138;50.966;6.968;2022-08-19T05:58:31;21.10;78.90
46440;DHT22;32138;50.966;6.968;2022-08-19T06:00:34;21.20;78.70
46440;DHT22;32138;50.966;6.968;2022-08-19T06:02:36;21.30;78.70
46440;DHT22;32138;50.966;6.968;2022-08-19T06:04:37;21.20;78.80
46440;DHT22;32138;50.966;6.968;2022-08-19T06:06:40;21.30;78.50
46440;DHT22;32138;50.966;6.968;2022-08-19T06:08:41;21.40;78.40
46440;DHT22;32138;50.966;6.968;2022-08-19T06:10:43;21.40;78.50
46440;DHT22;32138;50.966;6.968;2022-08-19T06:12:43;21.40;78.50
46440;DHT22;32138;50.966;6.968;2022-08-19T06:14:44;21.50;78.40
46440;DHT22;32138;50.966;6.968;2022-08-19T06:16:45;21.40;78.30
46440;DHT22;32138;50.966;6.968;2022-08-19T06:18:46;21.50;78.20
46440;DHT22;32138;50.966;6.968;2022-08-19T06:20:47;21.50;78.70
46440;DHT22;32138;50.966;6.968;2022-08-19T06:22:49;21.40;78.50
46440;DHT22;32138;50.966;6.968;2022-08-19T06:24:51;21.60;78.90
46440;DHT22;32138;50.966;6.968;2022-08-19T06:26:55;21.60;78.20
46440;DHT22;32138;50.966;6.968;2022-08-19T06:28:57;21.60;78.10
46440;DHT22;32138;50.966;6.968;2022-08-19T06:30:57;21.60;78.00
46440;DHT22;32138;50.966;6.968;2022-08-19T06:32:58;21.60;78.00
46440;DHT22;32138;50.966;6.968;2022-08-19T06:34:59;21.70;77.80
46440;DHT22;32138;50.966;6.968;2022-08-19T06:37:01;21.80;77.50
46440;DHT22;32138;50.966;6.968;2022-08-19T06:39:08;21.70;78.00
46440;DHT22;32138;50.966;6.968;2022-08-19T06:41:12;21.80;77.60
46440;DHT22;32138;50.966;6.968;2022-08-19T06:43:12;21.80;77.40
46440;DHT22;32138;50.966;6.968;2022-08-19T06:45:16;21.80;77.70
46440;DHT22;32138;50.966;6.968;2022-08-19T06:47:20;21.90;77.40
46440;DHT22;32138;50.966;6.968;2022-08-19T06:49:22;22.00;77.10
46440;DHT22;32138;50.966;6.968;2022-08-19T06:51:24;22.10;76.80
46440;DHT22;32138;50.966;6.968;2022-08-19T06:53:25;22.10;76.50
46440;DHT22;32138;50.966;6.968;2022-08-19T06:55:28;22.20;76.40
46440;DHT22;32138;50.966;6.968;2022-08-19T06:57:30;22.20;76.50
46440;DHT22;32138;50.966;6.968;2022-08-19T06:59:33;22.20;76.50
46440;DHT22;32138;50.966;6.968;2022-08-19T07:01:36;22.40;76.00
46440;DHT22;32138;50.966;6.968;2022-08-19T07:03:41;22.40;75.80
46440;DHT22;32138;50.966;6.968;2022-08-19T07:05:42;22.40;75.70
46440;DHT22;32138;50.966;6.968;2022-08-19T07:07:43;22.50;75.90
46440;DHT22;32138;50.966;6.968;2022-08-19T07:09:45;22.50;75.60
46440;DHT22;32138;50.966;6.968;2022-08-19T07:11:48;22.40;75.70
46440;DHT22;32138;50.966;6.968;2022-08-19T07:13:49;22.50;75.70
46440;DHT22;32138;50.966;6.968;2022-08-19T07:15:51;22.50;75.90
46440;DHT22;32138;50.966;6.968;2022-08-19T07:17:52;22.40;76.20
46440;DHT22;32138;50.966;6.968;2022-08-19T07:19:53;22.30;76.20
46440;DHT22;32138;50.966;6.968;2022-08-19T07:21:55;22.20;76.70
46440;DHT22;32138;50.966;6.968;2022-08-19T07:23:56;22.10;76.80
46440;DHT22;32138;50.966;6.968;2022-08-19T07:26:07;22.20;76.80
46440;DHT22;32138;50.966;6.968;2022-08-19T07:28:17;22.30;76.60
46440;DHT22;32138;50.966;6.968;2022-08-19T07:30:18;22.30;76.40
46440;DHT22;32138;50.966;6.968;2022-08-19T07:32:19;22.40;76.10
46440;DHT22;32138;50.966;6.968;2022-08-19T07:34:20;22.40;75.90
46440;DHT22;32138;50.966;6.968;2022-08-19T07:36:24;22.40;75.60
46440;DHT22;32138;50.966;6.968;2022-08-19T07:38:31;22.50;75.60
46440;DHT22;32138;50.966;6.968;2022-08-19T07:40:32;22.50;75.70
46440;DHT22;32138;50.966;6.968;2022-08-19T07:42:33;22.60;75.20
46440;DHT22;32138;50.966;6.968;2022-08-19T07:44:34;22.60;74.80
46440;DHT22;32138;50.966;6.968;2022-08-19T07:46:38;22.50;74.40
46440;DHT22;32138;50.966;6.968;2022-08-19T07:48:43;22.50;74.80
46440;DHT22;32138;50.966;6.968;2022-08-19T07:50:46;22.50;75.10
46440;DHT22;32138;50.966;6.968;2022-08-19T07:52:49;22.50;75.10
46440;DHT22;32138;50.966;6.968;2022-08-19T07:54:50;22.50;74.70
46440;DHT22;32138;50.966;6.968;2022-08-19T07:56:51;22.40;74.70
46440;DHT22;32138;50.966;6.968;2022-08-19T07:58:53;22.50;74.50
46440;DHT22;32138;50.966;6.968;2022-08-19T08:00:54;22.50;74.90
46440;DHT22;32138;50.966;6.968;2022-08-19T08:02:55;22.50;74.70
46440;DHT22;32138;50.966;6.968;2022-08-19T08:04:55;22.50;74.80
46440;DHT22;32138;50.966;6.968;2022-08-19T08:07:15;22.50;74.90
46440;DHT22;32138;50.966;6.968;2022-08-19T08:09:38;22.50;75.00
46440;DHT22;32138;50.966;6.968;2022-08-19T08:11:44;22.40;75.10
46440;DHT22;32138;50.966;6.968;2022-08-19T08:13:50;22.40;75.30
46440;DHT22;32138;50.966;6.968;2022-08-19T08:15:51;22.40;75.40
46440;DHT22;32138;50.966;6.968;2022-08-19T08:17:52;22.50;75.30
46440;DHT22;32138;50.966;6.968;2022-08-19T08:19:53;22.40;76.00
46440;DHT22;32138;50.966;6.968;2022-08-19T08:21:57;22.50;75.80
46440;DHT22;32138;50.966;6.968;2022-08-19T08:23:59;22.50;76.10
46440;DHT22;32138;50.966;6.968;2022-08-19T08:25:59;22.60;75.50
46440;DHT22;32138;50.966;6.968;2022-08-19T08:28:03;22.70;75.00
46440;DHT22;32138;50.966;6.968;2022-08-19T08:30:11;22.70;75.00
46440;DHT22;32138;50.966;6.968;2022-08-19T08:32:14;22.60;75.10
46440;DHT22;32138;50.966;6.968;2022-08-19T08:34:15;22.60;75.50
46440;DHT22;32138;50.966;6.968;2022-08-19T08:36:16;22.60;75.40
46440;DHT22;32138;50.966;6.968;2022-08-19T08:38:17;22.70;75.00
46440;DHT22;32138;50.966;6.968;2022-08-19T08:42:51;22.70;75.10
46440;DHT22;32138;50.966;6.968;2022-08-19T08:45:05;22.80;74.70
46440;DHT22;32138;50.966;6.968;2022-08-19T08:47:18;22.90;74.80
46440;DHT22;32138;50.966;6.968;2022-08-19T08:49:41;23.00;74.70
46440;DHT22;32138;50.966;6.968;2022-08-19T08:51:48;23.10;74.00
46440;DHT22;32138;50.966;6.968;2022-08-19T08:54:14;23.10;74.10
46440;DHT22;32138;50.966;6.968;2022-08-19T08:56:16;23.20;74.00
46440;DHT22;32138;50.966;6.968;2022-08-19T08:58:29;23.30;73.50
46440;DHT22;32138;50.966;6.968;2022-08-19T09:00:41;23.40;72.80
46440;DHT22;32138;50.966;6.968;2022-08-19T09:02:45;23.40;72.90
46440;DHT22;32138;50.966;6.968;2022-08-19T09:04:46;23.50;72.00
46440;DHT22;32138;50.966;6.968;2022-08-19T09:07:10;23.50;73.50
46440;DHT22;32138;50.966;6.968;2022-08-19T09:09:52;23.50;71.60
46440;DHT22;32138;50.966;6.968;2022-08-19T09:14:38;23.50;71.20
46440;DHT22;32138;50.966;6.968;2022-08-19T09:16:45;23.60;71.20
46440;DHT22;32138;50.966;6.968;2022-08-19T09:18:55;23.70;70.10
46440;DHT22;32138;50.966;6.968;2022-08-19T09:20:59;23.80;69.40
46440;DHT22;32138;50.966;6.968;2022-08-19T09:23:00;23.80;69.20
46440;DHT22;32138;50.966;6.968;2022-08-19T09:25:01;23.80;69.20
46440;DHT22;32138;50.966;6.968;2022-08-19T09:27:05;23.80;68.80
46440;DHT22;32138;50.966;6.968;2022-08-19T09:29:05;23.90;68.90
46440;DHT22;32138;50.966;6.968;2022-08-19T09:31:07;24.00;68.20
46440;DHT22;32138;50.966;6.968;2022-08-19T09:33:08;24.00;68.70
46440;DHT22;32138;50.966;6.968;2022-08-19T09:35:09;24.00;68.00
46440;DHT22;32138;50.966;6.968;2022-08-19T09:37:12;24.10;68.30
46440;DHT22;32138;50.966;6.968;2022-08-19T09:39:13;24.10;68.00
46440;DHT22;32138;50.966;6.968;2022-08-19T09:41:20;24.10;68.00
46440;DHT22;32138;50.966;6.968;2022-08-19T09:43:23;24.10;67.70
46440;DHT22;32138;50.966;6.968;2022-08-19T09:45:26;24.10;68.70
46440;DHT22;32138;50.966;6.968;2022-08-19T09:47:27;24.10;68.00
46440;DHT22;32138;50.966;6.968;2022-08-19T09:49:27;24.30;67.00
46440;DHT22;32138;50.966;6.968;2022-08-19T09:51:28;24.40;67.50
46440;DHT22;32138;50.966;6.968;2022-08-19T09:53:29;24.40;66.40
46440;DHT22;32138;50.966;6.968;2022-08-19T09:55:30;24.50;65.80
46440;DHT22;32138;50.966;6.968;2022-08-19T09:57:31;24.40;65.80
46440;DHT22;32138;50.966;6.968;2022-08-19T09:59:32;24.40;66.10
46440;DHT22;32138;50.966;6.968;2022-08-19T10:01:33;24.40;63.50
46440;DHT22;32138;50.966;6.968;2022-08-19T10:03:35;24.40;63.20
46440;DHT22;32138;50.966;6.968;2022-08-19T10:05:37;24.40;64.80
46440;DHT22;32138;50.966;6.968;2022-08-19T10:07:49;24.40;64.50
46440;DHT22;32138;50.966;6.968;2022-08-19T10:09:50;24.40;63.80
46440;DHT22;32138;50.966;6.968;2022-08-19T10:11:51;24.40;63.70
46440;DHT22;32138;50.966;6.968;2022-08-19T10:13:53;24.40;63.20
46440;DHT22;32138;50.966;6.968;2022-08-19T10:16:01;24.50;62.40
46440;DHT22;32138;50.966;6.968;2022-08-19T10:18:04;24.40;61.90
46440;DHT22;32138;50.966;6.968;2022-08-19T10:20:06;24.50;61.80
46440;DHT22;32138;50.966;6.968;2022-08-19T10:22:07;24.50;61.60
46440;DHT22;32138;50.966;6.968;2022-08-19T10:24:08;24.50;61.50
46440;DHT22;32138;50.966;6.968;2022-08-19T10:26:09;24.60;61.00
46440;DHT22;32138;50.966;6.968;2022-08-19T10:28:10;24.70;60.80
46440;DHT22;32138;50.966;6.968;2022-08-19T10:30:12;24.90;61.50
46440;DHT22;32138;50.966;6.968;2022-08-19T10:32:13;25.00;61.60
46440;DHT22;32138;50.966;6.968;2022-08-19T10:34:14;24.90;61.50
46440;DHT22;32138;50.966;6.968;2022-08-19T10:36:18;24.80;62.00
46440;DHT22;32138;50.966;6.968;2022-08-19T10:38:19;24.70;62.40
46440;DHT22;32138;50.966;6.968;2022-08-19T10:40:22;24.60;62.30
46440;DHT22;32138;50.966;6.968;2022-08-19T10:42:22;24.50;63.00
46440;DHT22;32138;50.966;6.968;2022-08-19T10:44:23;24.50;63.40
46440;DHT22;32138;50.966;6.968;2022-08-19T10:46:26;24.50;63.20
46440;DHT22;32138;50.966;6.968;2022-08-19T10:48:27;24.60;62.90
46440;DHT22;32138;50.966;6.968;2022-08-19T10:50:28;24.80;62.60
46440;DHT22;32138;50.966;6.968;2022-08-19T10:52:49;24.80;62.70
46440;DHT22;32138;50.966;6.968;2022-08-19T10:54:50;24.90;62.20
46440;DHT22;32138;50.966;6.968;2022-08-19T10:57:09;25.00;61.50
46440;DHT22;32138;50.966;6.968;2022-08-19T10:59:10;25.10;62.00
46440;DHT22;32138;50.966;6.968;2022-08-19T11:01:13;25.20;61.80
46440;DHT22;32138;50.966;6.968;2022-08-19T11:03:14;25.20;61.20
46440;DHT22;32138;50.966;6.968;2022-08-19T11:05:16;25.20;61.20
46440;DHT22;32138;50.966;6.968;2022-08-19T11:07:18;25.00;61.00
46440;DHT22;32138;50.966;6.968;2022-08-19T11:09:21;24.90;61.60
46440;DHT22;32138;50.966;6.968;2022-08-19T11:11:26;25.00;61.70
46440;DHT22;32138;50.966;6.968;2022-08-19T11:13:30;25.00;61.70
46440;DHT22;32138;50.966;6.968;2022-08-19T11:15:33;25.00;61.70
46440;DHT22;32138;50.966;6.968;2022-08-19T11:17:34;25.00;61.90
46440;DHT22;32138;50.966;6.968;2022-08-19T11:19:36;25.00;61.70
46440;DHT22;32138;50.966;6.968;2022-08-19T11:21:39;24.90;61.60
46440;DHT22;32138;50.966;6.968;2022-08-19T11:23:41;24.90;61.60
46440;DHT22;32138;50.966;6.968;2022-08-19T11:25:43;24.90;61.70
46440;DHT22;32138;50.966;6.968;2022-08-19T11:27:45;24.90;61.10
46440;DHT22;32138;50.966;6.968;2022-08-19T11:29:47;24.90;61.20
46440;DHT22;32138;50.966;6.968;2022-08-19T11:31:49;24.90;60.90
46440;DHT22;32138;50.966;6.968;2022-08-19T11:33:50;24.90;60.70
46440;DHT22;32138;50.966;6.968;2022-08-19T11:35:52;24.90;61.00
46440;DHT22;32138;50.966;6.968;2022-08-19T11:37:53;24.90;60.70
46440;DHT22;32138;50.966;6.968;2022-08-19T11:39:54;24.90;60.10
46440;DHT22;32138;50.966;6.968;2022-08-19T11:41:57;24.90;60.80
46440;DHT22;32138;50.966;6.968;2022-08-19T11:43:58;25.00;60.50
46440;DHT22;32138;50.966;6.968;2022-08-19T11:46:03;25.00;60.00
46440;DHT22;32138;50.966;6.968;2022-08-19T11:48:07;25.00;59.70
46440;DHT22;32138;50.966;6.968;2022-08-19T11:50:08;25.00;59.90
46440;DHT22;32138;50.966;6.968;2022-08-19T11:52:10;25.10;59.70
46440;DHT22;32138;50.966;6.968;2022-08-19T11:54:12;25.20;59.00
46440;DHT22;32138;50.966;6.968;2022-08-19T11:56:14;25.20;59.60
46440;DHT22;32138;50.966;6.968;2022-08-19T11:58:16;25.30;59.10
46440;DHT22;32138;50.966;6.968;2022-08-19T12:00:18;25.40;58.40
46440;DHT22;32138;50.966;6.968;2022-08-19T12:02:19;25.50;58.20
46440;DHT22;32138;50.966;6.968;2022-08-19T12:04:19;25.50;58.00
46440;DHT22;32138;50.966;6.968;2022-08-19T12:06:23;25.50;58.70
46440;DHT22;32138;50.966;6.968;2022-08-19T12:08:28;25.50;58.20
46440;DHT22;32138;50.966;6.968;2022-08-19T12:10:29;25.60;57.50
46440;DHT22;32138;50.966;6.968;2022-08-19T12:12:30;25.60;57.30
46440;DHT22;32138;50.966;6.968;2022-08-19T12:14:30;25.60;57.70
46440;DHT22;32138;50.966;6.968;2022-08-19T12:16:32;25.50;57.70
46440;DHT22;32138;50.966;6.968;2022-08-19T12:18:33;25.50;57.50
46440;DHT22;32138;50.966;6.968;2022-08-19T12:20:39;25.40;57.20
46440;DHT22;32138;50.966;6.968;2022-08-19T12:22:43;25.40;57.60
46440;DHT22;32138;50.966;6.968;2022-08-19T12:24:44;25.50;57.00
46440;DHT22;32138;50.966;6.968;2022-08-19T12:26:45;25.60;56.80
46440;DHT22;32138;50.966;6.968;2022-08-19T12:28:45;25.60;57.60
46440;DHT22;32138;50.966;6.968;2022-08-19T12:30:49;25.60;58.10
46440;DHT22;32138;50.966;6.968;2022-08-19T12:32:53;25.60;56.70
46440;DHT22;32138;50.966;6.968;2022-08-19T12:34:54;25.70;57.50
46440;DHT22;32138;50.966;6.968;2022-08-19T12:36:55;25.70;55.90
46440;DHT22;32138;50.966;6.968;2022-08-19T12:38:59;25.80;56.00
46440;DHT22;32138;50.966;6.968;2022-08-19T12:41:00;25.80;55.00
46440;DHT22;32138;50.966;6.968;2022-08-19T12:43:06;25.80;55.00
46440;DHT22;32138;50.966;6.968;2022-08-19T12:45:12;25.90;55.40
46440;DHT22;32138;50.966;6.968;2022-08-19T12:47:13;25.90;55.10
46440;DHT22;32138;50.966;6.968;2022-08-19T12:49:15;26.10;55.70
46440;DHT22;32138;50.966;6.968;2022-08-19T12:51:18;26.20;54.00
46440;DHT22;32138;50.966;6.968;2022-08-19T12:53:20;26.20;53.80
46440;DHT22;32138;50.966;6.968;2022-08-19T12:55:20;26.30;54.70
46440;DHT22;32138;50.966;6.968;2022-08-19T12:57:23;26.40;54.80
46440;DHT22;32138;50.966;6.968;2022-08-19T12:59:26;26.40;54.70
46440;DHT22;32138;50.966;6.968;2022-08-19T13:01:27;26.30;54.20
46440;DHT22;32138;50.966;6.968;2022-08-19T13:03:30;26.30;54.70
46440;DHT22;32138;50.966;6.968;2022-08-19T13:05:32;26.20;55.00
46440;DHT22;32138;50.966;6.968;2022-08-19T13:07:37;26.20;55.40